sensor_id;sensor_type;location;lat;lon;timestamp;pressure;altitude;pressure_sealevel;temperature;humidity
31092;BME280;67728;53.122;12.776;2023-07-24T00:00:44;99699.34;;;16.48;81.24
31092;BME280;67728;53.122;12.776;2023-07-24T00:02:15;99694.16;;;16.47;81.06
31092;BME280;67728;53.122;12.776;2023-07-24T00:03:46;99689.50;;;16.52;81.17
31092;BME280;67728;53.122;12.776;2023-07-24T00:05:16;99686.75;;;16.55;80.72
31092;BME280;67728;53.122;12.776;2023-07-24T00:06:49;99692.09;;;16.53;81.28
31092;BME280;67728;53.122;12.776;2023-07-24T00:08:19;99686.59;;;16.58;80.75
31092;BME280;67728;53.122;12.776;2023-07-24T00:09:51;99682.94;;;16.60;80.92
31092;BME280;67728;53.122;12.776;2023-07-24T00:11:21;99682.03;;;16.61;81.01
31092;BME280;67728;53.122;12.776;2023-07-24T00:12:53;99682.94;;;16.60;80.95
31092;BME280;67728;53.122;12.776;2023-07-24T00:14:23;99675.78;;;16.64;81.13
31092;BME280;67728;53.122;12.776;2023-07-24T00:15:54;99674.00;;;16.64;80.49
31092;BME280;67728;53.122;12.776;2023-07-24T00:17:25;99673.25;;;16.62;80.26
31092;BME280;67728;53.122;12.776;2023-07-24T00:18:56;99672.13;;;16.66;80.93
31092;BME280;67728;53.122;12.776;2023-07-24T00:20:27;99676.78;;;16.61;80.88
31092;BME280;67728;53.122;12.776;2023-07-24T00:21:59;99669.78;;;16.62;80.50
31092;BME280;67728;53.122;12.776;2023-07-24T00:23:30;99662.84;;;16.61;80.81
31092;BME280;67728;53.122;12.776;2023-07-24T00:25:01;99658.38;;;16.63;80.82
31092;BME280;67728;53.122;12.776;2023-07-24T00:26:32;99659.97;;;16.65;80.37
31092;BME280;67728;53.122;12.776;2023-07-24T00:28:03;99657.28;;;16.67;80.73
31092;BME280;67728;53.122;12.776;2023-07-24T00:29:34;99664.13;;;16.69;80.58
31092;BME280;67728;53.122;12.776;2023-07-24T00:31:05;99656.94;;;16.73;80.57
31092;BME280;67728;53.122;12.776;2023-07-24T00:32:36;99659.44;;;16.74;80.64
31092;BME280;67728;53.122;12.776;2023-07-24T00:34:07;99664.16;;;16.84;80.13
31092;BME280;67728;53.122;12.776;2023-07-24T00:35:38;99658.75;;;16.87;79.99
31092;BME280;67728;53.122;12.776;2023-07-24T00:37:10;99647.25;;;16.89;79.68
31092;BME280;67728;53.122;12.776;2023-07-24T00:38:41;99652.31;;;16.92;80.00
31092;BME280;67728;53.122;12.776;2023-07-24T00:40:12;99652.97;;;16.96;79.68
31092;BME280;67728;53.122;12.776;2023-07-24T00:41:43;99656.25;;;16.99;80.30
31092;BME280;67728;53.122;12.776;2023-07-24T00:43:14;99647.38;;;17.02;79.76
31092;BME280;67728;53.122;12.776;2023-07-24T00:44:45;99660.38;;;17.03;80.06
31092;BME280;67728;53.122;12.776;2023-07-24T00:46:16;99645.44;;;17.05;79.72
31092;BME280;67728;53.122;12.776;2023-07-24T00:47:47;99647.94;;;17.07;79.44
31092;BME280;67728;53.122;12.776;2023-07-24T00:49:17;99646.16;;;17.07;79.79
31092;BME280;67728;53.122;12.776;2023-07-24T00:50:49;99646.16;;;17.07;78.97
31092;BME280;67728;53.122;12.776;2023-07-24T00:52:21;99643.38;;;17.10;79.86
31092;BME280;67728;53.122;12.776;2023-07-24T00:53:54;99653.75;;;17.12;80.01
31092;BME280;67728;53.122;12.776;2023-07-24T00:55:24;99645.81;;;17.13;78.95
31092;BME280;67728;53.122;12.776;2023-07-24T00:56:56;99650.09;;;17.14;79.79
31092;BME280;67728;53.122;12.776;2023-07-24T00:58:26;99643.94;;;17.15;79.32
31092;BME280;67728;53.122;12.776;2023-07-24T00:59:58;99643.09;;;17.15;79.92
31092;BME280;67728;53.122;12.776;2023-07-24T01:01:29;99637.84;;;17.15;79.73
31092;BME280;67728;53.122;12.776;2023-07-24T01:03:01;99651.06;;;17.13;80.53
31092;BME280;67728;53.122;12.776;2023-07-24T01:04:31;99645.88;;;17.12;79.89
31092;BME280;67728;53.122;12.776;2023-07-24T01:06:03;99645.03;;;17.11;80.24
31092;BME280;67728;53.122;12.776;2023-07-24T01:07:35;99644.41;;;17.08;80.39
31092;BME280;67728;53.122;12.776;2023-07-24T01:09:06;99648.63;;;17.10;80.40
31092;BME280;67728;53.122;12.776;2023-07-24T01:10:37;99647.66;;;17.11;80.90
31092;BME280;67728;53.122;12.776;2023-07-24T01:12:10;99645.16;;;17.10;81.17
31092;BME280;67728;53.122;12.776;2023-07-24T01:13:47;99639.81;;;17.11;80.79
31092;BME280;67728;53.122;12.776;2023-07-24T01:15:19;99646.06;;;17.09;80.93
31092;BME280;67728;53.122;12.776;2023-07-24T01:16:54;99636.44;;;17.09;80.66
31092;BME280;67728;53.122;12.776;2023-07-24T01:18:25;99642.63;;;17.08;80.90
31092;BME280;67728;53.122;12.776;2023-07-24T01:19:58;99646.00;;;17.10;81.33
31092;BME280;67728;53.122;12.776;2023-07-24T01:21:31;99653.13;;;17.08;80.94
31092;BME280;67728;53.122;12.776;2023-07-24T01:23:12;99645.25;;;17.08;81.05
31092;BME280;67728;53.122;12.776;2023-07-24T01:24:52;99636.53;;;17.08;81.06
31092;BME280;67728;53.122;12.776;2023-07-24T01:26:31;99635.69;;;17.07;81.55
31092;BME280;67728;53.122;12.776;2023-07-24T01:28:06;99635.69;;;17.07;81.38
31092;BME280;67728;53.122;12.776;2023-07-24T01:29:37;99633.16;;;17.06;81.59
31092;BME280;67728;53.122;12.776;2023-07-24T01:31:08;99626.97;;;17.07;81.55
31092;BME280;67728;53.122;12.776;2023-07-24T01:32:38;99632.97;;;17.09;81.97
31092;BME280;67728;53.122;12.776;2023-07-24T01:34:10;99636.44;;;17.09;81.42
31092;BME280;67728;53.122;12.776;2023-07-24T01:35:41;99625.03;;;17.10;81.20
31092;BME280;67728;53.122;12.776;2023-07-24T01:37:14;99625.88;;;17.11;81.37
31092;BME280;67728;53.122;12.776;2023-07-24T01:38:45;99620.63;;;17.11;81.50
31092;BME280;67728;53.122;12.776;2023-07-24T01:40:17;99616.22;;;17.11;81.32
31092;BME280;67728;53.122;12.776;2023-07-24T01:41:49;99617.91;;;17.12;81.23
31092;BME280;67728;53.122;12.776;2023-07-24T01:43:21;99617.91;;;17.12;81.55
31092;BME280;67728;53.122;12.776;2023-07-24T01:44:52;99610.91;;;17.13;81.74
31092;BME280;67728;53.122;12.776;2023-07-24T01:46:23;99621.28;;;17.14;81.16
31092;BME280;67728;53.122;12.776;2023-07-24T01:47:54;99616.03;;;17.14;81.42
31092;BME280;67728;53.122;12.776;2023-07-24T01:49:25;99606.41;;;17.15;81.30
31092;BME280;67728;53.122;12.776;2023-07-24T01:50:55;99602.13;;;17.14;81.81
31092;BME280;67728;53.122;12.776;2023-07-24T01:52:27;99599.50;;;17.14;81.46
31092;BME280;67728;53.122;12.776;2023-07-24T01:53:58;99596.88;;;17.14;81.55
31092;BME280;67728;53.122;12.776;2023-07-24T01:55:29;99598.53;;;17.15;81.74
31092;BME280;67728;53.122;12.776;2023-07-24T01:57:02;99601.09;;;17.16;81.76
31092;BME280;67728;53.122;12.776;2023-07-24T01:58:32;99598.25;;;17.19;81.62
31092;BME280;67728;53.122;12.776;2023-07-24T02:00:04;99597.34;;;17.20;81.53
31092;BME280;67728;53.122;12.776;2023-07-24T02:01:36;99598.19;;;17.21;81.41
31092;BME280;67728;53.122;12.776;2023-07-24T02:03:07;99600.69;;;17.22;81.26
31092;BME280;67728;53.122;12.776;2023-07-24T02:04:38;99603.31;;;17.22;81.15
31092;BME280;67728;53.122;12.776;2023-07-24T02:06:09;99601.66;;;17.21;81.14
31092;BME280;67728;53.122;12.776;2023-07-24T02:07:39;99602.56;;;17.20;81.77
31092;BME280;67728;53.122;12.776;2023-07-24T02:09:11;99606.13;;;17.19;81.60
31092;BME280;67728;53.122;12.776;2023-07-24T02:10:41;99611.34;;;17.19;81.50
31092;BME280;67728;53.122;12.776;2023-07-24T02:12:14;99608.00;;;17.17;81.55
31092;BME280;67728;53.122;12.776;2023-07-24T02:13:44;99610.06;;;17.12;81.92
31092;BME280;67728;53.122;12.776;2023-07-24T02:15:16;99599.56;;;17.12;81.53
31092;BME280;67728;53.122;12.776;2023-07-24T02:16:46;99598.72;;;17.12;81.50
31092;BME280;67728;53.122;12.776;2023-07-24T02:18:18;99598.72;;;17.12;81.87
31092;BME280;67728;53.122;12.776;2023-07-24T02:19:48;99594.34;;;17.12;81.61
31092;BME280;67728;53.122;12.776;2023-07-24T02:21:20;99594.50;;;17.09;81.61
31092;BME280;67728;53.122;12.776;2023-07-24T02:22:50;99593.66;;;17.09;81.52
31092;BME280;67728;53.122;12.776;2023-07-24T02:24:21;99593.59;;;17.10;81.71
31092;BME280;67728;53.122;12.776;2023-07-24T02:25:52;99595.25;;;17.11;82.23
31092;BME280;67728;53.122;12.776;2023-07-24T02:27:29;99594.69;;;17.06;82.27
31092;BME280;67728;53.122;12.776;2023-07-24T02:29:01;99592.25;;;17.03;82.50
31092;BME280;67728;53.122;12.776;2023-07-24T02:30:32;99586.44;;;16.98;82.02
31092;BME280;67728;53.122;12.776;2023-07-24T02:32:07;99592.63;;;16.97;82.08
31092;BME280;67728;53.122;12.776;2023-07-24T02:33:39;99582.97;;;16.98;82.14
31092;BME280;67728;53.122;12.776;2023-07-24T02:35:09;99587.97;;;17.02;81.93
31092;BME280;67728;53.122;12.776;2023-07-24T02:36:40;99588.16;;;16.99;81.92
31092;BME280;67728;53.122;12.776;2023-07-24T02:38:11;99589.00;;;17.00;81.88
31092;BME280;67728;53.122;12.776;2023-07-24T02:39:42;99586.09;;;17.04;82.33
31092;BME280;67728;53.122;12.776;2023-07-24T02:41:13;99589.91;;;16.99;81.80
31092;BME280;67728;53.122;12.776;2023-07-24T02:42:46;99585.59;;;16.98;82.08
31092;BME280;67728;53.122;12.776;2023-07-24T02:44:16;99581.31;;;16.97;81.82
31092;BME280;67728;53.122;12.776;2023-07-24T02:45:48;99587.28;;;16.99;82.57
31092;BME280;67728;53.122;12.776;2023-07-24T02:47:19;99585.34;;;17.02;81.34
31092;BME280;67728;53.122;12.776;2023-07-24T02:48:49;99591.16;;;17.07;81.60
31092;BME280;67728;53.122;12.776;2023-07-24T02:50:21;99588.53;;;17.07;81.58
31092;BME280;67728;53.122;12.776;2023-07-24T02:51:51;99585.00;;;17.08;81.85
31092;BME280;67728;53.122;12.776;2023-07-24T02:53:23;99584.13;;;17.08;81.06
31092;BME280;67728;53.122;12.776;2023-07-24T02:54:54;99587.59;;;17.08;81.63
31092;BME280;67728;53.122;12.776;2023-07-24T02:56:25;99591.03;;;17.09;81.70
31092;BME280;67728;53.122;12.776;2023-07-24T02:57:57;99591.16;;;17.07;81.55
31092;BME280;67728;53.122;12.776;2023-07-24T02:59:29;99594.63;;;17.08;81.63
31092;BME280;67728;53.122;12.776;2023-07-24T03:01:02;99595.47;;;17.08;81.59
31092;BME280;67728;53.122;12.776;2023-07-24T03:02:35;99596.09;;;17.12;82.10
31092;BME280;67728;53.122;12.776;2023-07-24T03:04:06;99594.34;;;17.12;81.39
31092;BME280;67728;53.122;12.776;2023-07-24T03:05:37;99592.56;;;17.13;81.81
31092;BME280;67728;53.122;12.776;2023-07-24T03:07:09;99591.72;;;17.12;81.35
31092;BME280;67728;53.122;12.776;2023-07-24T03:08:39;99595.84;;;17.16;81.79
31092;BME280;67728;53.122;12.776;2023-07-24T03:10:11;99595.75;;;17.18;81.48
31092;BME280;67728;53.122;12.776;2023-07-24T03:11:41;99602.56;;;17.20;81.46
31092;BME280;67728;53.122;12.776;2023-07-24T03:13:14;99592.94;;;17.21;81.31
31092;BME280;67728;53.122;12.776;2023-07-24T03:14:44;99589.28;;;17.23;81.70
31092;BME280;67728;53.122;12.776;2023-07-24T03:16:15;99597.03;;;17.25;81.33
31092;BME280;67728;53.122;12.776;2023-07-24T03:17:47;99585.53;;;17.27;81.24
31092;BME280;67728;53.122;12.776;2023-07-24T03:19:18;99585.53;;;17.27;81.38
31092;BME280;67728;53.122;12.776;2023-07-24T03:20:50;99591.53;;;17.29;81.62
31092;BME280;67728;53.122;12.776;2023-07-24T03:22:22;99589.66;;;17.31;81.45
31092;BME280;67728;53.122;12.776;2023-07-24T03:23:52;99592.19;;;17.33;81.02
31092;BME280;67728;53.122;12.776;2023-07-24T03:25:23;99596.59;;;17.32;80.93
31092;BME280;67728;53.122;12.776;2023-07-24T03:26:54;99602.59;;;17.34;81.40
31092;BME280;67728;53.122;12.776;2023-07-24T03:28:27;99597.34;;;17.34;81.37
31092;BME280;67728;53.122;12.776;2023-07-24T03:29:57;99594.72;;;17.34;81.29
31092;BME280;67728;53.122;12.776;2023-07-24T03:31:29;99596.31;;;17.37;81.38
31092;BME280;67728;53.122;12.776;2023-07-24T03:32:59;99604.06;;;17.39;81.54
31092;BME280;67728;53.122;12.776;2023-07-24T03:34:31;99602.97;;;17.43;81.70
31092;BME280;67728;53.122;12.776;2023-07-24T03:36:03;99604.44;;;17.47;81.87
31092;BME280;67728;53.122;12.776;2023-07-24T03:37:34;99601.19;;;17.43;82.76
31092;BME280;67728;53.122;12.776;2023-07-24T03:39:05;99604.91;;;17.39;83.60
31092;BME280;67728;53.122;12.776;2023-07-24T03:40:36;99608.56;;;17.37;84.38
31092;BME280;67728;53.122;12.776;2023-07-24T03:42:09;99603.44;;;17.35;84.72
31092;BME280;67728;53.122;12.776;2023-07-24T03:43:43;99603.50;;;17.33;84.97
31092;BME280;67728;53.122;12.776;2023-07-24T03:45:14;99604.25;;;17.35;84.59
31092;BME280;67728;53.122;12.776;2023-07-24T03:46:45;99617.66;;;17.31;85.56
31092;BME280;67728;53.122;12.776;2023-07-24T03:48:16;99613.63;;;17.25;86.69
31092;BME280;67728;53.122;12.776;2023-07-24T03:49:47;99616.06;;;17.28;87.05
31092;BME280;67728;53.122;12.776;2023-07-24T03:51:17;99623.19;;;17.26;87.57
31092;BME280;67728;53.122;12.776;2023-07-24T03:52:49;99620.91;;;17.20;88.23
31092;BME280;67728;53.122;12.776;2023-07-24T03:54:20;99618.59;;;17.16;88.81
31092;BME280;67728;53.122;12.776;2023-07-24T03:55:51;99620.53;;;17.12;89.33
31092;BME280;67728;53.122;12.776;2023-07-24T03:57:22;99621.38;;;17.13;89.25
31092;BME280;67728;53.122;12.776;2023-07-24T03:58:55;99613.53;;;17.13;89.16
31092;BME280;67728;53.122;12.776;2023-07-24T04:00:25;99622.22;;;17.13;89.36
31092;BME280;67728;53.122;12.776;2023-07-24T04:01:57;99621.38;;;17.13;89.44
31092;BME280;67728;53.122;12.776;2023-07-24T04:03:27;99616.03;;;17.14;89.32
31092;BME280;67728;53.122;12.776;2023-07-24T04:04:59;99615.13;;;17.15;89.64
31092;BME280;67728;53.122;12.776;2023-07-24T04:06:29;99615.13;;;17.15;89.38
31092;BME280;67728;53.122;12.776;2023-07-24T04:08:01;99617.72;;;17.15;89.66
31092;BME280;67728;53.122;12.776;2023-07-24T04:09:32;99617.72;;;17.15;89.71
31092;BME280;67728;53.122;12.776;2023-07-24T04:11:03;99615.97;;;17.16;89.76
31092;BME280;67728;53.122;12.776;2023-07-24T04:12:35;99611.34;;;17.19;89.69
31092;BME280;67728;53.122;12.776;2023-07-24T04:14:08;99611.47;;;17.18;89.28
31092;BME280;67728;53.122;12.776;2023-07-24T04:15:38;99612.13;;;17.21;89.33
31092;BME280;67728;53.122;12.776;2023-07-24T04:17:10;99611.19;;;17.22;89.17
31092;BME280;67728;53.122;12.776;2023-07-24T04:18:40;99610.16;;;17.25;89.42
31092;BME280;67728;53.122;12.776;2023-07-24T04:20:11;99609.03;;;17.29;89.32
31092;BME280;67728;53.122;12.776;2023-07-24T04:21:43;99604.72;;;17.28;89.62
31092;BME280;67728;53.122;12.776;2023-07-24T04:23:13;99605.69;;;17.27;89.34
31092;BME280;67728;53.122;12.776;2023-07-24T04:24:45;99609.97;;;17.28;89.53
31092;BME280;67728;53.122;12.776;2023-07-24T04:26:15;99612.69;;;17.26;89.15
31092;BME280;67728;53.122;12.776;2023-07-24T04:27:46;99610.38;;;17.22;89.73
31092;BME280;67728;53.122;12.776;2023-07-24T04:29:18;99609.59;;;17.20;89.83
31092;BME280;67728;53.122;12.776;2023-07-24T04:30:53;99618.22;;;17.22;89.74
31092;BME280;67728;53.122;12.776;2023-07-24T04:32:25;99612.13;;;17.21;90.02
31092;BME280;67728;53.122;12.776;2023-07-24T04:33:57;99606.91;;;17.21;90.27
31092;BME280;67728;53.122;12.776;2023-07-24T04:35:28;99611.28;;;17.21;90.70
31092;BME280;67728;53.122;12.776;2023-07-24T04:37:00;99605.94;;;17.22;90.43
31092;BME280;67728;53.122;12.776;2023-07-24T04:38:30;99612.88;;;17.23;90.54
31092;BME280;67728;53.122;12.776;2023-07-24T04:40:01;99615.31;;;17.26;90.59
31092;BME280;67728;53.122;12.776;2023-07-24T04:41:32;99616.81;;;17.30;91.07
31092;BME280;67728;53.122;12.776;2023-07-24T04:43:03;99609.72;;;17.32;91.00
31092;BME280;67728;53.122;12.776;2023-07-24T04:44:36;99609.50;;;17.35;91.01
31092;BME280;67728;53.122;12.776;2023-07-24T04:46:07;99601.38;;;17.40;91.02
31092;BME280;67728;53.122;12.776;2023-07-24T04:47:37;99607.28;;;17.44;91.05
31092;BME280;67728;53.122;12.776;2023-07-24T04:49:09;99606.25;;;17.46;91.04
31092;BME280;67728;53.122;12.776;2023-07-24T04:50:39;99605.41;;;17.46;91.16
31092;BME280;67728;53.122;12.776;2023-07-24T04:52:11;99601.81;;;17.47;90.68
31092;BME280;67728;53.122;12.776;2023-07-24T04:53:41;99597.44;;;17.47;90.75
31092;BME280;67728;53.122;12.776;2023-07-24T04:55:12;99594.91;;;17.46;90.94
31092;BME280;67728;53.122;12.776;2023-07-24T04:56:43;99586.31;;;17.44;91.39
31092;BME280;67728;53.122;12.776;2023-07-24T04:58:14;99593.16;;;17.46;91.12
31092;BME280;67728;53.122;12.776;2023-07-24T04:59:46;99594.06;;;17.45;91.26
31092;BME280;67728;53.122;12.776;2023-07-24T05:01:18;99585.16;;;17.48;91.08
31092;BME280;67728;53.122;12.776;2023-07-24T05:02:48;99592.84;;;17.51;90.90
31092;BME280;67728;53.122;12.776;2023-07-24T05:04:20;99587.44;;;17.54;91.05
31092;BME280;67728;53.122;12.776;2023-07-24T05:05:53;99580.22;;;17.57;91.05
31092;BME280;67728;53.122;12.776;2023-07-24T05:07:25;99583.69;;;17.58;90.96
31092;BME280;67728;53.122;12.776;2023-07-24T05:08:55;99580.69;;;17.64;90.50
31092;BME280;67728;53.122;12.776;2023-07-24T05:10:27;99581.25;;;17.69;90.48
31092;BME280;67728;53.122;12.776;2023-07-24T05:11:57;99573.19;;;17.72;90.52
31092;BME280;67728;53.122;12.776;2023-07-24T05:13:28;99572.69;;;17.79;90.15
31092;BME280;67728;53.122;12.776;2023-07-24T05:15:01;99566.03;;;17.88;90.27
31092;BME280;67728;53.122;12.776;2023-07-24T05:16:33;99560.72;;;17.89;89.77
31092;BME280;67728;53.122;12.776;2023-07-24T05:18:03;99563.09;;;17.92;89.75
31092;BME280;67728;53.122;12.776;2023-07-24T05:19:35;99560.47;;;17.92;89.57
31092;BME280;67728;53.122;12.776;2023-07-24T05:21:05;99560.28;;;17.96;89.43
31092;BME280;67728;53.122;12.776;2023-07-24T05:22:37;99554.13;;;17.97;89.38
31092;BME280;67728;53.122;12.776;2023-07-24T05:24:07;99559.25;;;17.98;88.87
31092;BME280;67728;53.122;12.776;2023-07-24T05:25:38;99556.34;;;18.03;89.48
31092;BME280;67728;53.122;12.776;2023-07-24T05:27:09;99557.94;;;18.05;89.33
31092;BME280;67728;53.122;12.776;2023-07-24T05:28:42;99556.97;;;18.06;89.39
31092;BME280;67728;53.122;12.776;2023-07-24T05:30:15;99551.66;;;18.08;89.57
31092;BME280;67728;53.122;12.776;2023-07-24T05:31:45;99548.81;;;18.11;89.11
31092;BME280;67728;53.122;12.776;2023-07-24T05:33:17;99547.06;;;18.11;88.76
31092;BME280;67728;53.122;12.776;2023-07-24T05:34:47;99544.19;;;18.14;88.78
31092;BME280;67728;53.122;12.776;2023-07-24T05:36:19;99539.72;;;18.16;89.05
31092;BME280;67728;53.122;12.776;2023-07-24T05:37:49;99544.53;;;18.22;88.65
31092;BME280;67728;53.122;12.776;2023-07-24T05:39:20;99549.50;;;18.27;88.74
31092;BME280;67728;53.122;12.776;2023-07-24T05:40:54;99532.59;;;18.31;88.32
31092;BME280;67728;53.122;12.776;2023-07-24T05:42:25;99534.94;;;18.35;87.89
31092;BME280;67728;53.122;12.776;2023-07-24T05:43:55;99543.75;;;18.34;87.84
31092;BME280;67728;53.122;12.776;2023-07-24T05:45:28;99537.34;;;18.38;87.39
31092;BME280;67728;53.122;12.776;2023-07-24T05:46:59;99530.97;;;18.42;87.87
31092;BME280;67728;53.122;12.776;2023-07-24T05:48:30;99538.34;;;18.50;87.27
31092;BME280;67728;53.122;12.776;2023-07-24T05:50:00;99537.31;;;18.52;86.86
31092;BME280;67728;53.122;12.776;2023-07-24T05:51:32;99540.56;;;18.56;86.66
31092;BME280;67728;53.122;12.776;2023-07-24T05:53:03;99534.16;;;18.60;86.88
31092;BME280;67728;53.122;12.776;2023-07-24T05:54:34;99536.28;;;18.68;86.24
31092;BME280;67728;53.122;12.776;2023-07-24T05:56:05;99531.56;;;18.73;87.14
31092;BME280;67728;53.122;12.776;2023-07-24T05:57:37;99531.78;;;18.82;86.77
31092;BME280;67728;53.122;12.776;2023-07-24T05:59:07;99532.41;;;18.86;85.61
31092;BME280;67728;53.122;12.776;2023-07-24T06:00:40;99526.75;;;18.92;85.75
31092;BME280;67728;53.122;12.776;2023-07-24T06:02:10;99532.94;;;19.03;85.41
31092;BME280;67728;53.122;12.776;2023-07-24T06:03:42;99531.78;;;19.07;85.45
31092;BME280;67728;53.122;12.776;2023-07-24T06:05:12;99526.50;;;19.20;84.80
31092;BME280;67728;53.122;12.776;2023-07-24T06:06:43;99529.56;;;19.27;84.27
31092;BME280;67728;53.122;12.776;2023-07-24T06:08:14;99528.09;;;19.35;84.14
31092;BME280;67728;53.122;12.776;2023-07-24T06:09:45;99527.56;;;19.43;83.87
31092;BME280;67728;53.122;12.776;2023-07-24T06:11:16;99522.41;;;19.54;83.22
31092;BME280;67728;53.122;12.776;2023-07-24T06:12:47;99519.97;;;19.51;82.33
31092;BME280;67728;53.122;12.776;2023-07-24T06:14:17;99523.44;;;19.51;83.05
31092;BME280;67728;53.122;12.776;2023-07-24T06:15:51;99519.00;;;19.52;82.67
31092;BME280;67728;53.122;12.776;2023-07-24T06:17:22;99521.44;;;19.55;82.70
31092;BME280;67728;53.122;12.776;2023-07-24T06:18:53;99516.56;;;19.61;81.98
31092;BME280;67728;53.122;12.776;2023-07-24T06:20:24;99524.97;;;19.66;81.95
31092;BME280;67728;53.122;12.776;2023-07-24T06:21:55;99520.56;;;19.67;81.77
31092;BME280;67728;53.122;12.776;2023-07-24T06:23:27;99524.03;;;19.67;81.44
31092;BME280;67728;53.122;12.776;2023-07-24T06:24:58;99529.09;;;19.71;81.85
31092;BME280;67728;53.122;12.776;2023-07-24T06:26:28;99523.69;;;19.72;81.57
31092;BME280;67728;53.122;12.776;2023-07-24T06:28:00;99524.44;;;19.74;81.12
31092;BME280;67728;53.122;12.776;2023-07-24T06:29:31;99522.53;;;19.76;81.27
31092;BME280;67728;53.122;12.776;2023-07-24T06:31:03;99515.25;;;19.80;80.82
31092;BME280;67728;53.122;12.776;2023-07-24T06:32:34;99522.19;;;19.81;81.12
31092;BME280;67728;53.122;12.776;2023-07-24T06:34:05;99517.78;;;19.81;80.50
31092;BME280;67728;53.122;12.776;2023-07-24T06:35:36;99519.66;;;19.79;80.79
31092;BME280;67728;53.122;12.776;2023-07-24T06:37:07;99512.84;;;19.77;79.99
31092;BME280;67728;53.122;12.776;2023-07-24T06:38:38;99518.50;;;19.83;80.36
31092;BME280;67728;53.122;12.776;2023-07-24T06:40:08;99520.13;;;19.97;80.28
31092;BME280;67728;53.122;12.776;2023-07-24T06:41:40;99524.50;;;20.09;80.41
31092;BME280;67728;53.122;12.776;2023-07-24T06:43:11;99533.41;;;20.19;80.33
31092;BME280;67728;53.122;12.776;2023-07-24T06:44:42;99527.38;;;20.30;80.11
31092;BME280;67728;53.122;12.776;2023-07-24T06:46:15;99522.34;;;20.26;79.02
31092;BME280;67728;53.122;12.776;2023-07-24T06:47:45;99516.66;;;20.20;78.65
31092;BME280;67728;53.122;12.776;2023-07-24T06:49:17;99521.06;;;20.19;78.87
31092;BME280;67728;53.122;12.776;2023-07-24T06:50:47;99519.19;;;20.21;79.02
31092;BME280;67728;53.122;12.776;2023-07-24T06:52:18;99516.16;;;20.15;78.63
31092;BME280;67728;53.122;12.776;2023-07-24T06:53:49;99521.63;;;20.12;78.91
31092;BME280;67728;53.122;12.776;2023-07-24T06:55:20;99515.66;;;20.10;79.30
31092;BME280;67728;53.122;12.776;2023-07-24T06:56:51;99507.75;;;20.10;79.30
31092;BME280;67728;53.122;12.776;2023-07-24T06:58:22;99508.47;;;20.12;79.43
31092;BME280;67728;53.122;12.776;2023-07-24T06:59:52;99492.44;;;20.15;79.34
31092;BME280;67728;53.122;12.776;2023-07-24T07:01:25;99498.34;;;20.18;79.47
31092;BME280;67728;53.122;12.776;2023-07-24T07:02:56;99500.59;;;20.36;79.13
31092;BME280;67728;53.122;12.776;2023-07-24T07:04:27;99499.88;;;20.45;78.32
31092;BME280;67728;53.122;12.776;2023-07-24T07:05:59;99497.53;;;20.53;78.02
31092;BME280;67728;53.122;12.776;2023-07-24T07:07:29;99495.03;;;20.62;77.33
31092;BME280;67728;53.122;12.776;2023-07-24T07:09:00;99489.53;;;20.76;77.32
31092;BME280;67728;53.122;12.776;2023-07-24T07:10:31;99484.88;;;20.80;75.86
31092;BME280;67728;53.122;12.776;2023-07-24T07:12:02;99483.81;;;20.94;75.38
31092;BME280;67728;53.122;12.776;2023-07-24T07:13:33;99480.00;;;21.20;74.91
31092;BME280;67728;53.122;12.776;2023-07-24T07:15:05;99475.06;;;21.49;73.76
31092;BME280;67728;53.122;12.776;2023-07-24T07:16:36;99484.63;;;21.61;73.02
31092;BME280;67728;53.122;12.776;2023-07-24T07:18:08;99481.13;;;21.71;73.18
31092;BME280;67728;53.122;12.776;2023-07-24T07:19:39;99474.81;;;21.63;72.91
31092;BME280;67728;53.122;12.776;2023-07-24T07:21:10;99463.63;;;21.70;72.32
31092;BME280;67728;53.122;12.776;2023-07-24T07:22:41;99472.34;;;21.82;72.18
31092;BME280;67728;53.122;12.776;2023-07-24T07:24:12;99468.25;;;22.00;71.92
31092;BME280;67728;53.122;12.776;2023-07-24T07:25:43;99474.41;;;21.78;71.70
31092;BME280;67728;53.122;12.776;2023-07-24T07:27:15;99470.69;;;21.70;72.51
31092;BME280;67728;53.122;12.776;2023-07-24T07:28:47;99472.75;;;21.66;72.32
31092;BME280;67728;53.122;12.776;2023-07-24T07:30:18;99478.03;;;21.66;71.94
31092;BME280;67728;53.122;12.776;2023-07-24T07:31:50;99472.19;;;21.52;71.95
31092;BME280;67728;53.122;12.776;2023-07-24T07:33:21;99466.91;;;21.52;72.35
31092;BME280;67728;53.122;12.776;2023-07-24T07:34:53;99476.50;;;21.41;72.15
31092;BME280;67728;53.122;12.776;2023-07-24T07:36:24;99483.72;;;21.39;72.02
31092;BME280;67728;53.122;12.776;2023-07-24T07:37:55;99478.41;;;21.51;72.67
31092;BME280;67728;53.122;12.776;2023-07-24T07:39:26;99477.81;;;21.47;72.11
31092;BME280;67728;53.122;12.776;2023-07-24T07:40:57;99475.19;;;21.47;71.87
31092;BME280;67728;53.122;12.776;2023-07-24T07:42:27;99477.34;;;21.53;72.35
31092;BME280;67728;53.122;12.776;2023-07-24T07:43:59;99468.47;;;21.54;71.42
31092;BME280;67728;53.122;12.776;2023-07-24T07:45:29;99468.13;;;21.79;71.36
31092;BME280;67728;53.122;12.776;2023-07-24T07:47:02;99466.34;;;21.91;70.61
31092;BME280;67728;53.122;12.776;2023-07-24T07:48:32;99466.44;;;22.00;70.55
31092;BME280;67728;53.122;12.776;2023-07-24T07:50:04;99463.72;;;22.12;69.78
31092;BME280;67728;53.122;12.776;2023-07-24T07:51:35;99463.31;;;22.27;69.22
31092;BME280;67728;53.122;12.776;2023-07-24T07:53:06;99460.97;;;22.34;69.17
31092;BME280;67728;53.122;12.776;2023-07-24T07:54:37;99457.19;;;22.47;67.45
31092;BME280;67728;53.122;12.776;2023-07-24T07:56:08;99456.28;;;22.37;68.02
31092;BME280;67728;53.122;12.776;2023-07-24T07:57:38;99461.88;;;22.23;68.98